Time;durP1;ratioP1;P1;durP2;ratioP2;P2;SDS_P1;SDS_P2;PMS_P1;PMS_P2;Temp;Humidity;BMP_temperature;BMP_pressure;BME280_temperature;BME280_humidity;BME280_pressure;Samples;Min_cycle;Max_cycle;Signal;HPM_P1;HPM_P2
2022/07/12 00:00:56;;;;;;;3.45;1.45;;;;;;;14.18;79.85;100707.13;2839896;82;21100;-92
2022/07/12 00:04:58;;;;;;;2.72;1.22;;;;;;;14.06;79.98;100711.24;2829885;82;21607;-92
2022/07/12 00:08:59;;;;;;;1.85;1.02;;;;;;;14.01;80.08;100710.82;2780281;82;21051;-93
2022/07/12 00:13:03;;;;;;;1.65;1.35;;;;;;;13.98;83.23;100710.59;2813412;82;21083;-92
2022/07/12 00:17:04;;;;;;;2.72;1.82;;;;;;;13.96;83.75;100717.09;2839061;82;21035;-91
2022/07/12 00:21:08;;;;;;;4.97;1.50;;;;;;;13.95;84.00;100722.05;2819990;82;21044;-92
2022/07/12 00:25:10;;;;;;;3.30;1.35;;;;;;;13.92;84.43;100719.66;2827931;82;21634;-93
2022/07/12 00:29:11;;;;;;;2.12;1.50;;;;;;;13.93;84.52;100724.02;2828096;82;21063;-93
2022/07/12 00:33:13;;;;;;;2.92;2.08;;;;;;;13.95;84.38;100723.39;2818006;82;20977;-92
2022/07/12 00:37:14;;;;;;;3.67;1.17;;;;;;;13.97;84.67;100717.44;2833695;82;21097;-92
2022/07/12 00:41:16;;;;;;;1.47;1.35;;;;;;;13.83;85.51;100726.19;2822933;82;21032;-93
2022/07/12 00:45:18;;;;;;;3.47;1.87;;;;;;;13.81;85.39;100728.63;2820718;82;21104;-92
2022/07/12 00:49:19;;;;;;;2.85;2.00;;;;;;;13.73;85.76;100732.48;2818366;82;21075;-92
2022/07/12 00:53:24;;;;;;;2.95;2.10;;;;;;;13.75;85.76;100734.53;2828445;82;21047;-92
2022/07/12 00:57:25;;;;;;;3.22;1.98;;;;;;;13.73;85.71;100734.66;2731726;84;21048;-92
2022/07/12 01:01:27;;;;;;;3.55;1.65;;;;;;;13.66;85.48;100733.52;2860587;82;21024;-92
2022/07/12 01:05:30;;;;;;;2.40;1.52;;;;;;;13.55;85.93;100739.30;2850170;82;21059;-93
2022/07/12 01:09:33;;;;;;;4.22;2.52;;;;;;;13.51;86.38;100739.22;2829684;82;21013;-93
2022/07/12 01:13:36;;;;;;;2.75;1.95;;;;;;;13.54;85.94;100741.62;2865925;82;21564;-94
2022/07/12 01:17:39;;;;;;;2.55;2.15;;;;;;;13.63;85.61;100745.82;2827717;82;21011;-91
2022/07/12 01:21:41;;;;;;;2.55;2.35;;;;;;;13.59;85.36;100742.56;2825206;82;20997;-94
2022/07/12 01:25:42;;;;;;;3.15;2.02;;;;;;;13.48;86.37;100747.51;2843122;82;21088;-93
2022/07/12 01:29:44;;;;;;;1.22;0.93;;;;;;;13.45;86.44;100746.44;2806922;83;21106;-93
2022/07/12 01:33:47;;;;;;;3.87;1.72;;;;;;;13.43;86.23;100747.07;2836574;83;21001;-92
2022/07/12 01:37:49;;;;;;;3.00;2.10;;;;;;;13.35;86.42;100754.38;2836465;83;21020;-94
2022/07/12 01:41:51;;;;;;;2.58;1.62;;;;;;;13.35;85.90;100749.03;2874899;82;21030;-93
2022/07/12 01:45:59;;;;;;;2.55;1.47;;;;;;;13.33;86.18;100751.47;2828394;82;20967;-93
2022/07/12 01:50:08;;;;;;;4.10;1.15;;;;;;;13.28;83.76;100751.39;2826458;82;21544;-94
2022/07/12 01:54:09;;;;;;;3.77;1.52;;;;;;;13.29;83.58;100753.08;2823369;82;21079;-92
2022/07/12 01:58:13;;;;;;;2.80;1.90;;;;;;;13.26;83.00;100754.68;2881051;81;21051;-93
2022/07/12 02:02:15;;;;;;;3.92;1.67;;;;;;;13.26;83.15;100758.69;2820225;82;21063;-92
2022/07/12 02:06:16;;;;;;;2.60;1.75;;;;;;;13.20;84.81;100758.36;2886602;81;21116;-93
2022/07/12 02:10:17;;;;;;;1.57;1.42;;;;;;;13.15;83.65;100757.41;2892049;81;21067;-93
2022/07/12 02:14:26;;;;;;;1.85;1.70;;;;;;;13.18;84.08;100749.64;2859950;81;21024;-92
2022/07/12 02:18:28;;;;;;;6.05;2.22;;;;;;;13.19;83.89;100752.66;2888931;81;21054;-92
2022/07/12 02:22:29;;;;;;;3.10;1.80;;;;;;;13.14;84.12;100746.38;2845154;81;21581;-92
2022/07/12 02:26:34;;;;;;;5.65;2.65;;;;;;;13.06;84.31;100750.20;2828628;83;20996;-92
2022/07/12 02:30:35;;;;;;;2.52;1.40;;;;;;;13.04;84.65;100758.33;2831268;82;21020;-92
2022/07/12 02:34:40;;;;;;;2.83;2.15;;;;;;;13.09;84.61;100752.60;2846728;81;21849;-92
2022/07/12 02:38:41;;;;;;;2.02;1.60;;;;;;;13.12;84.08;100748.33;2847625;82;21013;-93
2022/07/12 02:42:43;;;;;;;3.70;1.67;;;;;;;12.93;84.80;100755.23;2857634;81;21083;-92
2022/07/12 02:46:44;;;;;;;3.12;1.55;;;;;;;12.90;84.91;100760.84;2833857;81;21110;-92
2022/07/12 02:50:47;;;;;;;1.90;1.65;;;;;;;12.94;85.03;100763.60;2881674;81;21016;-92
2022/07/12 02:54:48;;;;;;;4.22;1.75;;;;;;;13.00;84.89;100765.77;2878092;81;21071;-92
2022/07/12 02:58:49;;;;;;;2.98;2.12;;;;;;;13.08;84.61;100763.80;2874808;81;21015;-90
2022/07/12 03:02:51;;;;;;;2.12;1.70;;;;;;;13.15;84.01;100766.77;2793362;81;21582;-92
2022/07/12 03:06:53;;;;;;;3.98;2.40;;;;;;;13.14;83.40;100767.27;2839375;82;21095;-92
2022/07/12 03:10:54;;;;;;;2.27;1.20;;;;;;;13.14;82.68;100762.40;2874416;81;21165;-93
2022/07/12 03:14:55;;;;;;;4.50;2.40;;;;;;;13.09;83.15;100760.62;2830528;81;21336;-93
2022/07/12 03:18:57;;;;;;;7.62;2.17;;;;;;;13.11;83.33;100763.53;2831265;82;21077;-92
2022/07/12 03:22:58;;;;;;;3.55;2.17;;;;;;;13.16;83.20;100756.44;2844049;81;21046;-92
2022/07/12 03:27:00;;;;;;;4.67;1.50;;;;;;;13.22;83.16;100766.61;2844720;82;21067;-91
2022/07/12 03:31:19;;;;;;;3.55;1.12;;;;;;;13.25;83.05;100766.34;2879075;81;21087;-92
2022/07/12 03:35:21;;;;;;;2.58;1.17;;;;;;;13.31;83.09;100768.13;2813347;81;21604;-93
2022/07/12 03:39:22;;;;;;;3.62;1.75;;;;;;;13.36;82.87;100767.23;2832146;82;21545;-92
2022/07/12 03:43:23;;;;;;;3.25;2.37;;;;;;;13.31;82.47;100764.98;2861958;82;21030;-92
2022/07/12 03:47:24;;;;;;;10.15;3.05;;;;;;;13.26;82.39;100762.70;2867343;82;21008;-92
2022/07/12 03:51:26;;;;;;;8.58;3.08;;;;;;;13.21;82.75;100762.25;2866302;82;21011;-90
2022/07/12 03:55:28;;;;;;;4.67;2.10;;;;;;;13.13;83.96;100767.38;2833805;82;21048;-91
2022/07/12 03:59:29;;;;;;;6.75;3.25;;;;;;;13.07;85.35;100767.91;2829358;84;21513;-90
2022/07/12 04:03:30;;;;;;;7.78;2.10;;;;;;;13.04;85.72;100764.17;2798150;84;21039;-90
2022/07/12 04:07:32;;;;;;;12.58;3.98;;;;;;;12.96;88.39;100766.98;2796580;83;21579;-89
2022/07/12 04:11:33;;;;;;;7.85;3.00;;;;;;;12.95;90.17;100767.13;2830203;84;21008;-90
2022/07/12 04:15:34;;;;;;;3.55;1.70;;;;;;;12.97;91.64;100771.38;2798170;82;21056;-91
2022/07/12 04:19:36;;;;;;;4.67;2.27;;;;;;;13.10;91.88;100763.64;2806363;83;21399;-92
2022/07/12 04:23:55;;;;;;;2.02;1.20;;;;;;;13.22;93.27;100769.28;2795706;84;21056;-91
2022/07/12 04:27:57;;;;;;;2.02;1.70;;;;;;;13.41;93.33;100771.71;2810519;82;21011;-93
2022/07/12 04:31:58;;;;;;;1.90;1.27;;;;;;;13.67;92.71;100780.17;2801342;82;21045;-96
2022/07/12 04:36:00;;;;;;;4.20;1.90;;;;;;;14.08;91.89;100776.66;2819670;82;21035;-90
2022/07/12 04:40:01;;;;;;;6.75;1.90;;;;;;;14.38;91.10;100775.73;2818252;82;21496;-90
2022/07/12 04:44:06;;;;;;;12.15;3.75;;;;;;;14.56;90.33;100772.37;2815372;82;21051;-90
2022/07/12 04:48:08;;;;;;;6.57;2.53;;;;;;;15.03;90.57;100780.20;2816047;82;21044;-89
2022/07/12 04:52:10;;;;;;;2.72;1.55;;;;;;;15.22;88.33;100786.86;2805910;82;21429;-89
2022/07/12 04:56:11;;;;;;;6.60;3.20;;;;;;;15.45;88.06;100786.52;2749568;84;21112;-89
2022/07/12 05:00:13;;;;;;;3.15;1.87;;;;;;;15.62;86.12;100788.09;2786561;84;20973;-89
2022/07/12 05:04:15;;;;;;;7.70;2.22;;;;;;;15.70;85.55;100786.86;2795638;84;21013;-89
2022/07/12 05:08:17;;;;;;;5.87;2.67;;;;;;;16.40;86.27;100782.84;2827334;84;21483;-89
2022/07/12 05:12:19;;;;;;;4.53;2.42;;;;;;;17.36;83.31;100769.73;2822970;84;21041;-89
2022/07/12 05:16:21;;;;;;;3.17;1.60;;;;;;;18.43;80.55;100773.38;2812524;83;21540;-89
2022/07/12 05:20:22;;;;;;;2.77;1.70;;;;;;;19.06;77.84;100779.66;2830491;84;21058;-90
2022/07/12 05:24:24;;;;;;;6.28;1.70;;;;;;;19.48;74.74;100768.30;2832261;82;21010;-89
2022/07/12 05:28:25;;;;;;;6.22;2.27;;;;;;;19.10;71.46;100773.76;2831709;84;20973;-90
2022/07/12 05:32:27;;;;;;;2.42;1.32;;;;;;;18.95;73.00;100774.92;2797691;84;21041;-90
2022/07/12 05:36:28;;;;;;;4.05;1.10;;;;;;;19.23;73.58;100776.45;2836419;82;21530;-90
2022/07/12 05:40:30;;;;;;;2.58;0.90;;;;;;;19.70;69.68;100772.94;2862299;82;21027;-90
2022/07/12 05:44:31;;;;;;;1.72;1.05;;;;;;;19.83;67.95;100768.34;2866342;82;21035;-90
2022/07/12 05:48:33;;;;;;;1.22;0.45;;;;;;;20.14;66.30;100769.40;2819798;81;21048;-90
2022/07/12 05:56:54;;;;;;;0.95;0.70;;;;;;;20.86;65.97;100767.44;2817178;82;21040;-90
2022/07/12 06:00:56;;;;;;;1.07;0.40;;;;;;;21.18;64.40;100760.02;2816597;82;21052;-90
2022/07/12 06:04:57;;;;;;;0.90;0.68;;;;;;;21.45;62.45;100750.11;2810636;82;21039;-90
2022/07/12 06:08:59;;;;;;;1.77;0.85;;;;;;;21.58;62.46;100746.25;2824509;82;21031;-91
2022/07/12 06:13:01;;;;;;;0.82;0.82;;;;;;;21.67;62.45;100756.49;2871335;82;21022;-90
2022/07/12 06:17:03;;;;;;;2.80;1.10;;;;;;;21.64;63.19;100742.78;2883544;82;21023;-90
2022/07/12 06:21:05;;;;;;;1.57;0.88;;;;;;;21.84;61.99;100750.34;2842564;82;21052;-91
2022/07/12 06:25:08;;;;;;;3.60;1.55;;;;;;;21.86;62.61;100748.81;2834067;83;21583;-90
2022/07/12 06:29:09;;;;;;;5.58;1.25;;;;;;;21.50;62.33;100736.35;2843348;82;21040;-90
2022/07/12 06:33:11;;;;;;;1.20;0.78;;;;;;;21.67;64.03;100747.02;2879749;82;21050;-91
2022/07/12 06:37:14;;;;;;;1.60;0.95;;;;;;;21.53;61.48;100735.16;2901900;82;21014;-91
2022/07/12 06:41:16;;;;;;;1.95;0.72;;;;;;;21.68;61.77;100733.28;2858350;82;21021;-91
2022/07/12 06:45:17;;;;;;;1.00;0.80;;;;;;;21.92;61.20;100738.08;2848138;82;21055;-90
2022/07/12 06:49:19;;;;;;;5.67;1.17;;;;;;;22.10;60.13;100740.35;2788457;82;21060;-90
2022/07/12 06:53:20;;;;;;;1.77;1.30;;;;;;;22.47;60.25;100732.73;2885946;82;21048;-90
2022/07/12 06:57:23;;;;;;;3.33;1.10;;;;;;;22.57;58.57;100733.77;2873009;81;20990;-90
2022/07/12 07:01:24;;;;;;;3.08;1.22;;;;;;;22.95;58.67;100734.28;2851640;82;20998;-90
2022/07/12 07:05:26;;;;;;;11.22;1.35;;;;;;;23.09;56.49;100727.61;2877832;81;21009;-90
2022/07/12 07:09:27;;;;;;;2.90;0.82;;;;;;;23.19;56.02;100736.25;2820501;82;21044;-90
2022/07/12 07:13:30;;;;;;;3.22;0.80;;;;;;;23.35;55.83;100729.69;2841466;82;30638;-90
2022/07/12 07:17:31;;;;;;;1.75;0.45;;;;;;;23.19;54.91;100729.46;2843476;81;21444;-90
2022/07/12 07:21:33;;;;;;;2.25;0.70;;;;;;;23.09;55.25;100713.53;2832789;82;21033;-90
2022/07/12 07:25:34;;;;;;;3.22;0.70;;;;;;;23.27;55.18;100723.58;2840520;82;21051;-90
2022/07/12 07:33:56;;;;;;;0.95;0.65;;;;;;;23.54;54.96;100711.81;2827910;82;21012;-91
2022/07/12 07:37:57;;;;;;;1.50;0.70;;;;;;;23.56;54.96;100709.41;2885482;81;21025;-90
2022/07/12 07:41:59;;;;;;;1.90;1.00;;;;;;;23.62;54.67;100702.66;2862323;82;21011;-90
2022/07/12 07:46:01;;;;;;;2.10;1.02;;;;;;;23.69;54.28;100708.13;2837079;82;21035;-90
2022/07/12 07:50:04;;;;;;;3.77;1.70;;;;;;;23.58;54.31;100719.55;2790416;82;21039;-90
2022/07/12 07:54:05;;;;;;;1.80;0.65;;;;;;;23.32;55.11;100719.73;2828386;82;21014;-90
2022/07/12 07:58:07;;;;;;;1.00;0.80;;;;;;;23.12;55.29;100725.84;2781382;84;21033;-90
2022/07/12 08:02:12;;;;;;;0.90;0.70;;;;;;;23.20;55.09;100714.86;2802942;84;21071;-90
2022/07/12 08:06:13;;;;;;;1.52;1.02;;;;;;;23.03;54.75;100721.09;2804280;83;21038;-90
2022/07/12 08:10:15;;;;;;;1.87;0.98;;;;;;;23.32;53.48;100730.59;2778890;84;21027;-90
2022/07/12 08:14:17;;;;;;;1.37;0.72;;;;;;;23.35;52.50;100713.91;2779146;84;21049;-89
2022/07/12 08:18:18;;;;;;;2.72;0.78;;;;;;;23.16;52.92;100723.05;2768845;84;21081;-89
2022/07/12 08:22:20;;;;;;;2.40;1.10;;;;;;;23.11;52.80;100725.53;2731107;85;21051;-89
2022/07/12 08:26:21;;;;;;;4.35;1.30;;;;;;;22.81;52.29;100720.32;2771660;84;21020;-90
2022/07/12 08:30:23;;;;;;;0.85;0.40;;;;;;;22.98;52.79;100720.85;2766343;85;21024;-91
2022/07/12 08:34:24;;;;;;;2.40;0.60;;;;;;;23.27;51.84;100724.40;2764718;85;21075;-89
2022/07/12 08:38:27;;;;;;;0.88;0.70;;;;;;;23.34;51.24;100714.95;2685651;85;21067;-90
2022/07/12 08:42:28;;;;;;;1.70;0.57;;;;;;;23.48;51.70;100715.84;2748331;85;21152;-90
2022/07/12 08:46:30;;;;;;;1.77;0.95;;;;;;;23.84;51.89;100716.11;2744027;85;21059;-91
2022/07/12 08:50:31;;;;;;;3.33;1.42;;;;;;;24.13;51.40;100712.80;2760349;85;21032;-91
2022/07/12 08:54:39;;;;;;;10.48;2.37;;;;;;;24.27;50.80;100708.22;2768081;84;21023;-91
2022/07/12 08:58:41;;;;;;;3.00;1.00;;;;;;;24.31;51.10;100710.02;2759794;85;21019;-90
2022/07/12 09:02:55;;;;;;;4.08;1.07;;;;;;;24.19;50.90;100705.70;2764334;85;21082;-90
2022/07/12 09:06:59;;;;;;;1.10;0.70;;;;;;;24.41;50.25;100711.78;2747755;85;21083;-90
2022/07/12 09:11:03;;;;;;;1.65;0.55;;;;;;;24.72;49.37;100714.94;2713893;85;21059;-91
2022/07/12 09:15:20;;;;;;;2.33;1.25;;;;;;;24.69;49.77;100702.61;2766632;85;21023;-91
2022/07/12 09:19:22;;;;;;;2.37;1.40;;;;;;;24.41;48.98;100719.12;2746114;85;21035;-89
2022/07/12 09:23:23;;;;;;;1.35;0.98;;;;;;;24.37;49.02;100707.30;2738109;85;21047;-91
2022/07/12 09:27:26;;;;;;;0.95;0.62;;;;;;;24.36;49.77;100712.40;2760621;85;21564;-91
2022/07/12 09:36:06;;;;;;;2.10;0.60;;;;;;;24.42;48.82;100718.08;2774980;85;21075;-90
2022/07/12 09:40:09;;;;;;;2.20;0.40;;;;;;;24.87;47.39;100707.43;2787136;84;21012;-90
2022/07/12 09:44:11;;;;;;;1.50;0.40;;;;;;;24.90;46.70;100708.36;2790844;83;21015;-90
2022/07/12 09:48:13;;;;;;;3.75;0.53;;;;;;;24.53;47.30;100716.08;2749600;85;21068;-91
2022/07/12 09:52:25;;;;;;;0.57;0.37;;;;;;;24.18;48.58;100710.83;2769864;85;21075;-90
2022/07/12 09:56:28;;;;;;;4.62;0.60;;;;;;;24.05;48.40;100696.66;2761862;84;21090;-90
2022/07/12 10:00:31;;;;;;;0.35;0.33;;;;;;;24.57;47.93;100691.53;2736025;85;21015;-89
2022/07/12 10:04:33;;;;;;;0.60;0.33;;;;;;;24.50;46.85;100707.83;2733126;85;21127;-90
2022/07/12 10:08:35;;;;;;;0.50;0.23;;;;;;;24.37;48.12;100707.30;2753791;85;21090;-90
2022/07/12 10:12:37;;;;;;;1.72;0.78;;;;;;;24.60;47.92;100691.10;2739412;85;21095;-90
2022/07/12 10:16:45;;;;;;;30.40;5.17;;;;;;;24.49;48.89;100695.80;2765400;85;21016;-90
2022/07/12 10:20:49;;;;;;;0.47;0.25;;;;;;;24.73;49.07;100705.72;2772455;85;21589;-89
2022/07/12 10:24:52;;;;;;;0.75;0.23;;;;;;;25.26;47.17;100693.12;2774406;85;21021;-90
2022/07/12 10:29:03;;;;;;;2.52;0.20;;;;;;;25.67;45.79;100697.41;2765317;85;21008;-90
2022/07/12 10:33:10;;;;;;;2.30;0.53;;;;;;;25.69;44.58;100702.65;2758993;83;21095;-90
2022/07/12 10:37:12;;;;;;;2.65;0.90;;;;;;;25.58;45.08;100690.55;2774799;84;21044;-91
2022/07/12 10:41:24;;;;;;;0.47;0.40;;;;;;;25.05;45.59;100690.98;2763396;85;21014;-90
2022/07/12 10:45:33;;;;;;;0.93;0.42;;;;;;;25.16;45.96;100694.94;2756390;85;20988;-91
2022/07/12 10:49:36;;;;;;;0.70;0.40;;;;;;;25.60;46.00;100682.99;2787721;85;21043;-91
2022/07/12 10:53:40;;;;;;;5.92;0.65;;;;;;;25.65;43.74;100695.43;2729332;84;21222;-90
2022/07/12 10:57:49;;;;;;;1.65;0.37;;;;;;;25.26;44.08;100723.92;2749031;85;21138;-91
2022/07/12 11:01:52;;;;;;;2.52;0.70;;;;;;;24.91;44.98;100706.50;2763777;85;21032;-91
2022/07/12 11:06:04;;;;;;;2.12;0.25;;;;;;;24.79;45.73;100715.28;2727433;85;21070;-90
2022/07/12 11:10:07;;;;;;;0.65;0.28;;;;;;;24.69;45.16;100708.05;2763027;85;21066;-90
2022/07/12 11:15:00;;;;;;;2.00;0.20;;;;;;;24.92;46.48;100699.47;2766239;85;21034;-90
2022/07/12 11:19:02;;;;;;;0.57;0.20;;;;;;;25.02;45.29;100692.23;2754263;85;21028;-90
2022/07/12 11:23:04;;;;;;;0.17;0.10;;;;;;;25.21;45.14;100679.64;2752584;85;21187;-90
2022/07/12 11:27:06;;;;;;;2.45;0.20;;;;;;;25.55;45.07;100671.89;2727487;85;21145;-90
2022/07/12 11:31:14;;;;;;;1.50;0.30;;;;;;;25.39;43.63;100680.84;2688390;85;21063;-91
2022/07/12 11:35:21;;;;;;;0.23;0.10;;;;;;;25.61;44.17;100688.75;2778156;85;21029;-91
2022/07/12 11:39:36;;;;;;;1.67;0.42;;;;;;;25.71;43.99;100682.30;2727644;85;21047;-91
2022/07/12 11:43:39;;;;;;;3.10;0.88;;;;;;;26.14;45.01;100664.95;2749832;85;21074;-90
2022/07/12 11:47:40;;;;;;;1.50;0.20;;;;;;;26.43;43.94;100657.23;2757156;84;21067;-91
2022/07/12 11:51:42;;;;;;;6.45;0.37;;;;;;;26.22;43.09;100683.82;2762697;84;21051;-91
2022/07/12 11:55:55;;;;;;;1.20;0.20;;;;;;;25.83;43.75;100668.81;2753623;84;20992;-91
2022/07/12 12:00:17;;;;;;;0.90;0.17;;;;;;;25.48;43.48;100668.67;2732933;84;21040;-91
2022/07/12 12:04:19;;;;;;;0.28;0.20;;;;;;;25.51;44.10;100664.16;2751467;85;20995;-91
2022/07/12 12:08:22;;;;;;;0.53;0.30;;;;;;;25.41;43.85;100651.51;2769686;85;21071;-91
2022/07/12 12:12:23;;;;;;;0.40;0.20;;;;;;;25.46;44.45;100654.41;2752270;84;21019;-91
2022/07/12 12:16:25;;;;;;;0.40;0.13;;;;;;;25.78;45.53;100653.14;2762137;84;21538;-89
2022/07/12 12:20:38;;;;;;;3.42;0.33;;;;;;;25.98;44.61;100649.98;2808354;84;21097;-90
2022/07/12 12:24:39;;;;;;;0.78;0.40;;;;;;;25.99;43.70;100645.69;2786110;84;21615;-91
2022/07/12 12:28:48;;;;;;;0.50;0.33;;;;;;;26.07;44.11;100644.05;2792704;84;21052;-91
2022/07/12 12:33:00;;;;;;;0.40;0.13;;;;;;;26.38;43.49;100641.02;2797416;84;21041;-89
2022/07/12 12:37:04;;;;;;;0.35;0.28;;;;;;;26.65;41.85;100646.23;2789988;84;21108;-91
2022/07/12 12:41:06;;;;;;;0.23;0.10;;;;;;;26.91;42.06;100642.95;2811096;84;21001;-90
2022/07/12 12:45:11;;;;;;;0.05;0.05;;;;;;;27.03;40.50;100636.23;2787785;84;21053;-89
2022/07/12 12:49:13;;;;;;;3.08;0.20;;;;;;;27.11;40.03;100626.87;2754726;84;21009;-87
2022/07/12 12:53:25;;;;;;;0.40;0.20;;;;;;;27.44;41.58;100617.45;2819779;82;21051;-90
2022/07/12 12:57:26;;;;;;;3.10;0.10;;;;;;;27.48;39.17;100609.09;2787024;83;21081;-89
2022/07/12 13:01:28;;;;;;;0.65;0.33;;;;;;;27.25;38.13;100618.54;2794815;83;21005;-89
2022/07/12 13:05:30;;;;;;;1.17;0.37;;;;;;;27.53;37.84;100617.17;2783989;83;21009;-88
2022/07/12 13:09:31;;;;;;;1.95;0.10;;;;;;;27.67;38.34;100617.27;2794334;83;21021;-87
2022/07/12 13:13:33;;;;;;;0.10;0.10;;;;;;;27.68;37.89;100616.20;2802603;83;21028;-88
2022/07/12 13:17:34;;;;;;;0.50;0.20;;;;;;;27.23;37.88;100620.16;2756416;86;20976;-89
2022/07/12 13:21:38;;;;;;;0.45;0.23;;;;;;;26.90;39.29;100620.81;2789475;84;21057;-89
2022/07/12 13:25:39;;;;;;;1.87;0.17;;;;;;;27.08;39.11;100606.34;2778060;84;21033;-88
2022/07/12 13:29:41;;;;;;;1.80;0.25;;;;;;;26.99;39.22;100606.88;2788836;84;21037;-88
2022/07/12 13:33:43;;;;;;;1.92;0.30;;;;;;;26.77;39.44;100604.58;2780297;84;21555;-89
2022/07/12 13:37:44;;;;;;;0.10;0.10;;;;;;;26.70;38.96;100610.09;2801881;84;21451;-88
2022/07/12 13:41:49;;;;;;;0.72;0.40;;;;;;;26.52;38.62;100608.16;2801093;83;21009;-90
2022/07/12 13:45:52;;;;;;;0.40;0.30;;;;;;;26.52;39.56;100608.16;2773345;85;21020;-89
2022/07/12 13:49:53;;;;;;;7.37;0.60;;;;;;;26.59;39.57;100580.30;2727466;86;21019;-93
2022/07/12 13:53:55;;;;;;;1.32;0.20;;;;;;;27.00;39.29;100600.36;2773495;85;21023;-90
2022/07/12 13:57:57;;;;;;;18.90;3.80;;;;;;;26.97;38.07;100608.46;2765223;83;21015;-90
2022/07/12 14:01:59;;;;;;;14.93;2.92;;;;;;;26.94;38.64;100598.85;2812554;83;21027;-90
2022/07/12 14:06:00;;;;;;;0.98;0.40;;;;;;;27.05;39.14;100600.50;2858757;82;21100;-91
2022/07/12 14:10:03;;;;;;;0.30;0.30;;;;;;;27.42;38.30;100600.46;2823131;82;21019;-92
2022/07/12 14:14:06;;;;;;;3.87;0.70;;;;;;;27.58;38.21;100594.09;2853701;83;21008;-88
2022/07/12 14:18:08;;;;;;;1.50;0.20;;;;;;;27.19;38.34;100607.48;2854642;82;21013;-88
2022/07/12 14:22:10;;;;;;;1.17;0.40;;;;;;;27.33;38.34;100605.41;2816069;83;21029;-88
2022/07/12 14:26:11;;;;;;;0.53;0.20;;;;;;;27.17;37.93;100602.78;2841982;83;20962;-88
2022/07/12 14:30:14;;;;;;;0.37;0.35;;;;;;;27.44;37.64;100606.52;2832233;82;21005;-88
2022/07/12 14:34:15;;;;;;;0.75;0.10;;;;;;;27.43;37.33;100596.66;2827876;82;21007;-87
2022/07/12 14:38:17;;;;;;;0.28;0.28;;;;;;;27.36;37.31;100598.66;2837216;82;21003;-88
2022/07/12 14:42:19;;;;;;;0.20;0.20;;;;;;;27.36;38.28;100567.25;2837701;82;21048;-87
2022/07/12 14:46:21;;;;;;;4.12;0.72;;;;;;;27.08;38.17;100593.22;2825785;82;21094;-88
2022/07/12 14:50:22;;;;;;;1.05;0.47;;;;;;;26.96;39.09;100589.60;2897375;81;21011;-88
2022/07/12 14:54:24;;;;;;;2.65;0.65;;;;;;;26.85;38.95;100581.09;2902906;81;21087;-88
2022/07/12 14:58:26;;;;;;;3.12;0.35;;;;;;;26.91;39.33;100568.44;2812617;82;20973;-88
2022/07/12 15:02:28;;;;;;;0.10;0.10;;;;;;;27.37;39.59;100567.55;2809160;82;20990;-88
2022/07/12 15:06:30;;;;;;;3.15;0.20;;;;;;;27.61;38.16;100569.03;2805025;82;21036;-88
2022/07/12 15:10:31;;;;;;;2.12;0.42;;;;;;;27.29;37.99;100568.70;2852021;82;21650;-87
2022/07/12 15:14:33;;;;;;;0.35;0.13;;;;;;;27.41;38.55;100570.12;2792667;82;21035;-87
2022/07/12 15:18:35;;;;;;;1.57;0.47;;;;;;;27.42;38.05;100556.76;2856663;82;21008;-87
2022/07/12 15:22:37;;;;;;;1.55;0.20;;;;;;;27.50;37.96;100549.59;2804407;82;21045;-86
2022/07/12 15:26:39;;;;;;;1.37;0.30;;;;;;;27.53;37.93;100561.99;2807828;82;21001;-88
2022/07/12 15:30:40;;;;;;;4.28;0.37;;;;;;;27.68;38.13;100560.19;2858222;82;21029;-87
2022/07/12 15:34:42;;;;;;;0.50;0.10;;;;;;;27.73;37.37;100561.71;2795504;84;21010;-88
2022/07/12 15:38:44;;;;;;;1.35;0.20;;;;;;;27.92;37.98;100563.00;2811429;84;21084;-88
2022/07/12 15:42:47;;;;;;;0.62;0.30;;;;;;;28.02;38.24;100552.30;2840724;82;21060;-88
2022/07/12 15:46:49;;;;;;;1.82;0.10;;;;;;;27.95;37.42;100563.89;2811201;82;21059;-87
2022/07/12 15:50:50;;;;;;;4.25;0.13;;;;;;;27.90;37.17;100557.75;2858219;82;20980;-87
2022/07/12 15:54:52;;;;;;;1.47;0.20;;;;;;;27.79;37.73;100553.94;2860454;82;21026;-87
2022/07/12 15:58:54;;;;;;;0.20;0.20;;;;;;;27.79;38.63;100545.73;2817707;82;21366;-86
2022/07/12 16:02:55;;;;;;;1.05;0.40;;;;;;;27.87;38.18;100543.72;2873769;82;20999;-88
2022/07/12 16:06:58;;;;;;;1.55;0.72;;;;;;;27.97;38.26;100534.94;2844667;82;21025;-87
2022/07/12 16:10:59;;;;;;;3.62;0.68;;;;;;;27.98;38.78;100544.28;2903989;81;20979;-87
2022/07/12 16:15:01;;;;;;;1.07;0.20;;;;;;;27.91;37.92;100554.50;2903990;81;21023;-87
2022/07/12 16:19:05;;;;;;;1.50;0.25;;;;;;;27.70;37.76;100537.56;2887320;81;21012;-87
2022/07/12 16:23:06;;;;;;;1.07;0.60;;;;;;;27.45;38.37;100533.62;2859031;83;21016;-88
2022/07/12 16:27:08;;;;;;;0.37;0.20;;;;;;;27.56;38.89;100537.48;2804686;81;21016;-87
2022/07/12 16:31:10;;;;;;;3.65;0.25;;;;;;;27.62;38.92;100507.86;2884494;82;21063;-87
2022/07/12 16:35:11;;;;;;;0.45;0.13;;;;;;;27.62;38.75;100528.34;2841565;82;21053;-87
2022/07/12 16:39:13;;;;;;;0.40;0.40;;;;;;;27.43;38.46;100527.02;2877252;81;21212;-86
2022/07/12 16:43:14;;;;;;;0.60;0.37;;;;;;;27.23;38.62;100539.05;2899968;81;21019;-87
2022/07/12 16:47:17;;;;;;;3.40;0.68;;;;;;;26.98;39.57;100541.08;2903493;82;20964;-88
2022/07/12 16:51:21;;;;;;;0.80;0.23;;;;;;;26.80;39.65;100539.99;2800309;82;21004;-87
2022/07/12 16:55:23;;;;;;;2.83;0.30;;;;;;;26.70;39.55;100536.95;2884692;82;21040;-87
2022/07/12 16:59:25;;;;;;;0.60;0.30;;;;;;;26.54;39.82;100539.23;2846931;83;21062;-87
2022/07/12 17:03:26;;;;;;;6.20;0.95;;;;;;;26.21;40.33;100540.39;2814131;83;21003;-88
2022/07/12 17:07:28;;;;;;;0.82;0.35;;;;;;;26.20;40.80;100529.19;2804823;83;21043;-87
2022/07/12 17:11:30;;;;;;;0.62;0.62;;;;;;;26.10;40.55;100538.66;2819276;84;21019;-86
2022/07/12 17:15:31;;;;;;;3.58;0.53;;;;;;;26.12;40.70;100543.05;2809589;84;21082;-87
2022/07/12 17:19:32;;;;;;;2.00;0.50;;;;;;;26.12;40.89;100538.96;2782669;84;21561;-86
2022/07/12 17:23:34;;;;;;;2.05;0.20;;;;;;;26.04;40.49;100542.28;2809186;84;21011;-87
2022/07/12 17:27:35;;;;;;;0.25;0.23;;;;;;;25.92;40.20;100538.09;2804234;84;21019;-88
2022/07/12 17:31:37;;;;;;;0.40;0.20;;;;;;;25.89;40.45;100543.98;2821994;83;21041;-87
2022/07/12 17:35:40;;;;;;;0.53;0.20;;;;;;;25.74;40.25;100552.45;2799655;85;21034;-87
2022/07/12 17:39:42;;;;;;;0.60;0.47;;;;;;;25.77;40.68;100546.59;2809400;83;21021;-88
2022/07/12 17:43:43;;;;;;;0.75;0.35;;;;;;;25.70;40.74;100540.34;2827113;83;21705;-88
2022/07/12 17:47:45;;;;;;;1.55;0.35;;;;;;;25.64;40.99;100537.14;2827589;83;21035;-88
2022/07/12 17:51:47;;;;;;;1.77;0.50;;;;;;;25.57;41.48;100536.36;2834666;83;20991;-87
2022/07/12 17:55:48;;;;;;;0.15;0.10;;;;;;;25.46;41.44;100540.05;2816950;83;21048;-87
2022/07/12 17:59:50;;;;;;;1.00;0.30;;;;;;;25.32;40.88;100535.73;2801992;83;21097;-89
2022/07/12 18:03:52;;;;;;;0.57;0.42;;;;;;;25.29;41.38;100545.69;2841415;83;21130;-89
2022/07/12 18:07:53;;;;;;;1.00;0.45;;;;;;;25.22;41.62;100544.36;2784819;84;21142;-91
2022/07/12 18:16:15;;;;;;;0.70;0.47;;;;;;;25.09;42.11;100542.55;2779361;84;21432;-91
2022/07/12 18:20:20;;;;;;;2.25;0.85;;;;;;;24.98;42.38;100544.59;2806243;83;21023;-91
2022/07/12 18:24:21;;;;;;;2.75;0.50;;;;;;;24.91;42.75;100551.42;2807063;83;21093;-94
2022/07/12 18:28:24;;;;;;;1.98;0.85;;;;;;;24.72;43.20;100534.06;2780234;83;21544;-90
2022/07/12 18:32:25;;;;;;;2.77;0.80;;;;;;;24.63;43.73;100535.67;2766522;85;21015;-91
2022/07/12 18:36:27;;;;;;;1.15;0.90;;;;;;;24.48;44.19;100535.92;2795570;83;21038;-91
2022/07/12 18:40:29;;;;;;;4.15;0.75;;;;;;;24.37;44.24;100546.92;2849987;82;21013;-93
2022/07/12 18:44:31;;;;;;;3.27;0.93;;;;;;;24.18;44.70;100545.87;2846295;82;21033;-96
2022/07/12 18:48:32;;;;;;;5.55;1.80;;;;;;;23.99;45.10;100547.53;2831152;82;21064;-89
2022/07/12 18:52:36;;;;;;;0.82;0.62;;;;;;;23.83;45.19;100547.40;2834146;81;20986;-91
2022/07/12 19:14:44;;;;;;;3.42;1.30;;;;;;;22.54;48.36;100547.95;2850875;81;21069;-89
2022/07/12 19:18:45;;;;;;;2.52;1.15;;;;;;;;;;2864864;81;21675;-93
2022/07/12 19:26:53;;;;;;;2.00;1.10;;;;;;;21.20;51.60;100562.39;2834664;82;21053;-93
2022/07/12 19:30:55;;;;;;;2.40;1.50;;;;;;;20.77;52.52;100560.34;2807951;83;21010;-89